Time;durP1;ratioP1;P1;durP2;ratioP2;P2;SDS_P1;SDS_P2;PMS_P1;PMS_P2;Temp;Humidity;BMP_temperature;BMP_pressure;BME280_temperature;BME280_humidity;BME280_pressure;Samples;Min_cycle;Max_cycle;Signal;HPM_P1;HPM_P2
2021/03/06 00:02:03;;;;;;;11.40;9.18;;;;;;;4.77;57.17;94854.25;4826976;29;20041;-79
2021/03/06 00:04:28;;;;;;;50.28;28.73;;;;;;;4.71;55.92;94849.69;4840816;29;20415;-79
2021/03/06 00:06:54;;;;;;;29.50;18.30;;;;;;;4.68;55.78;94838.91;4841976;29;20120;-78
2021/03/06 00:09:19;;;;;;;25.80;16.42;;;;;;;4.88;55.69;94857.63;4855515;29;20033;-79
2021/03/06 00:11:44;;;;;;;28.77;16.73;;;;;;;4.74;55.66;94857.09;4859290;29;20025;-79
2021/03/06 00:14:10;;;;;;;18.90;12.07;;;;;;;4.93;55.13;94853.69;4859614;29;20041;-79
2021/03/06 00:16:37;;;;;;;11.95;8.73;;;;;;;4.69;56.48;94855.88;4845783;29;20033;-79
2021/03/06 00:19:02;;;;;;;46.13;26.55;;;;;;;4.88;55.91;94868.66;4858893;29;20073;-79
2021/03/06 00:21:28;;;;;;;202.85;109.95;;;;;;;5.06;55.78;94868.78;4841973;29;20776;-79
2021/03/06 00:23:53;;;;;;;259.38;129.85;;;;;;;4.93;56.06;94861.38;4860223;29;20022;-78
2021/03/06 00:26:19;;;;;;;69.20;39.15;;;;;;;4.84;56.61;94864.78;4827008;29;20037;-78
2021/03/06 00:28:44;;;;;;;22.70;15.77;;;;;;;4.88;56.49;94866.09;4859820;29;20037;-79
2021/03/06 00:31:09;;;;;;;15.82;9.55;;;;;;;4.66;57.22;94867.22;4875627;29;20041;-78
2021/03/06 00:33:35;;;;;;;10.93;9.73;;;;;;;4.69;57.16;94868.69;4877505;29;20374;-78
2021/03/06 00:36:00;;;;;;;13.85;9.88;;;;;;;4.79;56.65;94862.63;4843985;29;20065;-78
2021/03/06 00:38:26;;;;;;;11.45;9.80;;;;;;;4.79;56.93;94862.63;4858384;29;20082;-78
2021/03/06 00:40:51;;;;;;;15.27;9.90;;;;;;;4.70;57.28;94863.44;4858453;29;20093;-79
2021/03/06 00:43:17;;;;;;;16.88;12.18;;;;;;;4.93;56.33;94863.94;4826164;29;20045;-78
2021/03/06 00:45:42;;;;;;;15.02;10.80;;;;;;;5.02;55.77;94860.53;4826968;29;20029;-78
2021/03/06 00:48:08;;;;;;;13.68;8.95;;;;;;;4.89;55.64;94864.34;4841629;29;20478;-78
2021/03/06 00:50:34;;;;;;;12.93;9.38;;;;;;;4.54;56.76;94857.25;4859883;29;20037;-78
2021/03/06 00:52:59;;;;;;;11.18;8.25;;;;;;;4.43;57.37;94865.88;4827974;29;20109;-78
2021/03/06 00:55:25;;;;;;;15.25;9.60;;;;;;;4.58;56.83;94864.56;4843891;29;20038;-78
2021/03/06 00:57:50;;;;;;;12.05;8.77;;;;;;;4.46;58.26;94870.78;4828431;29;20085;-78
2021/03/06 01:00:16;;;;;;;14.98;10.32;;;;;;;4.51;58.39;94863.47;4844757;29;20459;-79
2021/03/06 01:02:42;;;;;;;16.00;10.35;;;;;;;4.64;57.44;94861.44;4849211;29;20065;-79
2021/03/06 01:05:08;;;;;;;18.05;12.68;;;;;;;4.48;58.07;94856.06;4857376;29;20110;-78
2021/03/06 01:07:34;;;;;;;15.60;12.70;;;;;;;4.56;58.13;94861.28;4857959;29;20033;-78
2021/03/06 01:09:59;;;;;;;24.00;15.85;;;;;;;4.60;58.27;94866.97;4855181;29;20040;-78
2021/03/06 01:12:24;;;;;;;21.45;15.25;;;;;;;4.61;57.61;94860.91;4855235;29;20030;-78
2021/03/06 01:14:50;;;;;;;13.48;10.13;;;;;;;4.39;58.60;94864.56;4854286;29;20414;-78
2021/03/06 01:17:15;;;;;;;18.25;9.65;;;;;;;4.44;58.73;94866.69;4848600;29;20040;-78
2021/03/06 01:19:41;;;;;;;15.48;10.35;;;;;;;4.16;59.78;94861.47;4840549;29;20028;-77
2021/03/06 01:22:06;;;;;;;15.25;10.70;;;;;;;4.20;60.07;94865.38;4822993;29;20091;-78
2021/03/06 01:24:32;;;;;;;16.45;10.88;;;;;;;4.02;60.13;94856.72;4835185;29;20026;-78
2021/03/06 01:26:57;;;;;;;11.48;9.70;;;;;;;4.08;60.23;94863.06;4856786;29;20044;-78
2021/03/06 01:29:23;;;;;;;15.70;11.82;;;;;;;4.13;59.92;94866.84;4837314;29;20029;-78
2021/03/06 01:31:48;;;;;;;18.13;12.43;;;;;;;4.33;59.07;94867.69;4853398;29;20430;-79
2021/03/06 01:34:14;;;;;;;15.50;11.90;;;;;;;4.38;58.58;94860.38;4862970;29;20519;-79
2021/03/06 01:36:39;;;;;;;14.13;8.60;;;;;;;4.12;59.33;94866.97;4855537;29;20045;-78
2021/03/06 01:39:05;;;;;;;15.25;8.73;;;;;;;3.99;59.81;94864.66;4852709;29;20025;-78
2021/03/06 01:41:30;;;;;;;15.95;9.45;;;;;;;3.79;60.61;94855.34;4861350;29;20033;-79
2021/03/06 01:43:56;;;;;;;13.30;9.43;;;;;;;3.99;60.71;94866.41;4859107;29;20049;-78
2021/03/06 01:46:21;;;;;;;17.38;11.43;;;;;;;4.11;59.94;94860.25;4857761;29;20100;-78
2021/03/06 01:48:46;;;;;;;31.75;22.33;;;;;;;4.13;59.16;94846.34;4840922;29;20033;-79
2021/03/06 01:51:12;;;;;;;42.38;27.42;;;;;;;4.10;60.09;94864.56;4855174;29;20037;-79
2021/03/06 01:53:38;;;;;;;21.67;14.05;;;;;;;4.07;59.98;94864.00;4842081;29;20021;-77
2021/03/06 01:56:03;;;;;;;14.82;11.18;;;;;;;4.11;59.48;94860.25;4824936;29;20049;-78
2021/03/06 01:58:29;;;;;;;14.93;10.23;;;;;;;3.83;60.87;94864.38;4854567;29;20089;-78
2021/03/06 02:00:54;;;;;;;17.38;11.20;;;;;;;4.07;60.27;94864.84;4847416;29;20501;-79
2021/03/06 02:03:20;;;;;;;16.00;11.80;;;;;;;4.05;59.94;94860.75;4830224;29;20034;-78
2021/03/06 02:05:45;;;;;;;18.00;9.80;;;;;;;3.99;60.18;94856.16;4859957;29;20048;-78
2021/03/06 02:08:11;;;;;;;13.45;10.32;;;;;;;3.91;60.92;94856.03;4859825;29;20037;-78
2021/03/06 02:10:39;;;;;;;15.63;11.45;;;;;;;4.07;60.43;94856.34;4841370;29;20058;-78
2021/03/06 02:13:42;;;;;;;14.52;10.40;;;;;;;3.92;60.79;94855.91;4840863;29;20045;-78
2021/03/06 02:16:42;;;;;;;15.40;9.30;;;;;;;3.94;60.50;94848.91;4853575;29;20042;-78
2021/03/06 02:19:20;;;;;;;15.32;9.82;;;;;;;3.83;61.69;94850.75;4848469;29;20041;-78
2021/03/06 02:21:51;;;;;;;40.97;22.48;;;;;;;3.60;61.36;94820.25;4844780;29;20033;-78
2021/03/06 02:24:28;;;;;;;32.53;17.95;;;;;;;3.86;61.69;94861.56;4860244;29;20029;-78
2021/03/06 02:27:03;;;;;;;39.80;23.60;;;;;;;3.78;61.34;94847.81;4872808;29;20044;-78
2021/03/06 02:29:42;;;;;;;15.80;10.85;;;;;;;3.37;62.77;94847.00;4863340;29;20037;-77
2021/03/06 02:32:31;;;;;;;16.45;9.57;;;;;;;3.22;64.05;94861.09;4832832;29;20120;-77
2021/03/06 02:35:09;;;;;;;13.25;9.85;;;;;;;3.17;64.25;94864.06;4825890;29;20041;-78
2021/03/06 02:37:48;;;;;;;23.52;15.93;;;;;;;3.30;64.05;94860.47;4842058;29;20030;-77
2021/03/06 02:40:14;;;;;;;25.90;15.85;;;;;;;3.36;63.36;94854.84;4842762;29;20038;-78
2021/03/06 02:42:40;;;;;;;29.40;14.23;;;;;;;3.23;64.05;94862.72;4858240;29;20571;-78
2021/03/06 02:45:08;;;;;;;19.58;11.40;;;;;;;3.09;64.54;94863.88;4858764;29;20104;-76
2021/03/06 02:47:33;;;;;;;14.93;10.05;;;;;;;3.01;65.02;94868.84;4858841;29;20048;-78
2021/03/06 02:50:00;;;;;;;17.13;10.68;;;;;;;3.05;64.70;94874.50;4857896;29;20495;-77
2021/03/06 02:52:25;;;;;;;12.02;9.52;;;;;;;3.07;64.55;94873.44;4842335;29;20034;-79
2021/03/06 02:54:51;;;;;;;17.17;10.15;;;;;;;3.01;65.10;94873.94;4843711;29;20563;-80
2021/03/06 02:57:39;;;;;;;13.23;10.55;;;;;;;2.82;66.27;94862.81;4844384;29;20077;-81
2021/03/06 03:00:14;;;;;;;24.00;14.15;;;;;;;2.93;65.86;94875.50;4843562;29;20049;-81
2021/03/06 03:02:46;;;;;;;27.45;15.43;;;;;;;3.11;64.96;94874.00;4859890;29;20412;-81
2021/03/06 03:05:38;;;;;;;21.10;13.68;;;;;;;3.09;65.62;94879.22;4852739;29;20042;-79
2021/03/06 03:08:13;;;;;;;20.02;14.23;;;;;;;2.97;66.22;94885.34;4858813;29;20467;-79
2021/03/06 03:10:42;;;;;;;21.75;13.13;;;;;;;3.08;65.68;94892.16;4842594;29;20034;-78
2021/03/06 03:13:26;;;;;;;21.50;13.35;;;;;;;2.99;66.18;94892.88;4842583;29;20042;-79
2021/03/06 03:15:55;;;;;;;21.13;13.27;;;;;;;2.90;66.34;94891.09;4858928;29;20100;-79
2021/03/06 03:18:24;;;;;;;17.92;11.52;;;;;;;3.23;65.24;94898.53;4843338;29;20041;-79
2021/03/06 03:20:57;;;;;;;14.45;10.75;;;;;;;3.06;65.95;94894.00;4843689;29;20034;-79
2021/03/06 03:23:34;;;;;;;15.98;10.40;;;;;;;2.89;66.70;94897.94;4844514;29;20062;-79
2021/03/06 03:26:00;;;;;;;21.77;11.68;;;;;;;2.77;67.33;94901.50;4830923;29;20049;-79
2021/03/06 03:28:26;;;;;;;17.67;11.77;;;;;;;2.88;66.95;94904.03;4823090;29;20560;-79
2021/03/06 03:30:51;;;;;;;18.85;11.90;;;;;;;3.08;66.02;94907.50;4830562;29;20029;-78
2021/03/06 03:33:17;;;;;;;17.85;11.20;;;;;;;2.91;66.13;94892.72;4856152;29;20030;-78
2021/03/06 03:35:44;;;;;;;20.58;13.75;;;;;;;2.84;66.81;94899.28;4853284;29;20045;-77
2021/03/06 03:38:10;;;;;;;22.52;12.02;;;;;;;2.82;66.51;94906.25;4839572;29;20090;-82
2021/03/06 03:40:36;;;;;;;22.25;13.05;;;;;;;2.80;66.86;94905.56;4859055;29;20041;-82
2021/03/06 03:43:02;;;;;;;31.35;17.42;;;;;;;2.80;67.06;94910.69;4860907;29;20093;-82
2021/03/06 03:45:28;;;;;;;25.58;15.20;;;;;;;2.91;66.64;94908.88;4846106;29;20047;-81
2021/03/06 03:47:53;;;;;;;21.05;13.00;;;;;;;2.84;66.68;94917.97;4845063;29;20041;-80
2021/03/06 03:50:19;;;;;;;20.08;12.65;;;;;;;2.62;67.61;94911.25;4849339;29;20042;-82
2021/03/06 03:52:48;;;;;;;23.10;13.43;;;;;;;2.72;67.33;94929.22;4845896;29;20029;-79
2021/03/06 03:55:14;;;;;;;21.60;13.88;;;;;;;2.87;66.92;94937.38;4843331;29;20559;-78
2021/03/06 03:57:40;;;;;;;29.17;15.30;;;;;;;3.07;66.00;94941.69;4841753;29;20034;-78
2021/03/06 04:00:07;;;;;;;29.55;15.43;;;;;;;2.66;67.06;94952.72;4846562;29;20116;-79
2021/03/06 04:02:33;;;;;;;25.92;16.27;;;;;;;2.58;67.66;94943.09;4860505;29;20068;-80
2021/03/06 04:04:58;;;;;;;28.15;16.85;;;;;;;2.64;67.54;94963.03;4849969;29;20028;-79
2021/03/06 04:07:23;;;;;;;24.58;14.27;;;;;;;2.54;67.85;94946.81;4867407;29;20056;-79
2021/03/06 04:09:49;;;;;;;22.38;14.77;;;;;;;2.32;68.72;94967.34;4845264;29;20026;-79
2021/03/06 04:12:15;;;;;;;20.70;14.35;;;;;;;2.09;69.96;94960.66;4845268;29;20061;-78
2021/03/06 04:14:40;;;;;;;19.52;12.60;;;;;;;2.10;69.65;94965.66;4845942;29;20034;-82
2021/03/06 04:17:06;;;;;;;20.33;15.68;;;;;;;2.29;69.07;94961.66;4861417;29;20060;-81
2021/03/06 04:19:31;;;;;;;23.35;16.33;;;;;;;2.37;68.79;94975.47;4844327;29;20029;-81
2021/03/06 04:21:57;;;;;;;18.60;13.43;;;;;;;2.27;69.71;94973.75;4845464;29;20037;-80
2021/03/06 04:24:23;;;;;;;19.90;12.55;;;;;;;2.46;68.66;94973.94;4844050;29;20499;-78
2021/03/06 04:26:51;;;;;;;20.75;13.48;;;;;;;2.32;69.17;94977.56;4844871;29;20484;-79
2021/03/06 04:29:20;;;;;;;20.88;13.80;;;;;;;2.23;69.56;94973.19;4843716;29;20120;-78
2021/03/06 04:31:46;;;;;;;19.10;13.00;;;;;;;2.09;70.07;94970.88;4844848;29;20192;-79
2021/03/06 04:34:12;;;;;;;21.45;13.23;;;;;;;2.08;70.30;94980.31;4857493;29;20022;-79
2021/03/06 04:36:37;;;;;;;17.77;12.25;;;;;;;2.03;70.21;94968.81;4832382;29;20029;-82
2021/03/06 04:39:04;;;;;;;18.20;12.57;;;;;;;2.07;70.46;94983.78;4847492;29;20045;-82
2021/03/06 04:41:30;;;;;;;18.95;12.68;;;;;;;2.17;70.03;94986.44;4864468;29;20066;-82
2021/03/06 04:43:55;;;;;;;18.15;11.32;;;;;;;1.77;70.96;94982.75;4831478;29;20033;-82
2021/03/06 04:46:22;;;;;;;20.63;12.38;;;;;;;1.80;70.81;94996.09;4861096;29;20051;-81
2021/03/06 04:48:48;;;;;;;17.08;12.98;;;;;;;1.93;70.91;94990.84;4859778;29;20029;-80
2021/03/06 04:51:13;;;;;;;20.08;13.70;;;;;;;2.04;70.50;94991.69;4844519;29;20231;-80
2021/03/06 04:53:38;;;;;;;19.73;13.20;;;;;;;2.05;70.19;94992.50;4845393;29;20034;-81
2021/03/06 04:56:04;;;;;;;26.35;13.13;;;;;;;2.16;69.94;94997.56;4859234;29;20483;-81
2021/03/06 04:58:30;;;;;;;22.17;12.75;;;;;;;2.23;69.82;94996.16;4861777;29;20112;-81
2021/03/06 05:00:55;;;;;;;25.55;14.43;;;;;;;2.26;70.10;95008.69;4844783;29;20480;-81
2021/03/06 05:03:20;;;;;;;31.95;19.33;;;;;;;2.43;69.54;95015.06;4841686;29;20500;-81
2021/03/06 05:05:46;;;;;;;225.13;154.85;;;;;;;2.52;68.85;95006.66;4841485;29;20087;-80
2021/03/06 05:08:11;;;;;;;77.22;52.90;;;;;;;2.60;68.75;95009.44;4855591;29;20085;-80
2021/03/06 05:10:37;;;;;;;35.78;22.17;;;;;;;2.76;68.87;95014.16;4845319;29;20032;-80
2021/03/06 05:13:02;;;;;;;30.88;19.60;;;;;;;2.74;68.87;95019.34;4863801;29;20033;-81
2021/03/06 05:15:28;;;;;;;43.25;24.83;;;;;;;2.89;68.11;95020.69;4834943;29;20067;-80
2021/03/06 05:17:53;;;;;;;42.70;26.55;;;;;;;2.96;67.73;95023.56;4827026;29;20030;-80
2021/03/06 05:20:19;;;;;;;51.40;30.52;;;;;;;3.02;67.23;95029.00;4854659;29;20070;-80
2021/03/06 05:22:44;;;;;;;41.25;24.98;;;;;;;2.89;68.03;95038.59;4859201;29;20034;-80
2021/03/06 05:25:10;;;;;;;32.42;21.92;;;;;;;2.86;68.24;95048.28;4827696;29;20026;-81
2021/03/06 05:27:36;;;;;;;26.23;19.35;;;;;;;2.86;68.45;95053.38;4830500;29;20052;-81
2021/03/06 05:30:01;;;;;;;24.42;18.15;;;;;;;2.94;68.38;95049.28;4844568;29;20510;-81
2021/03/06 05:32:27;;;;;;;26.50;15.90;;;;;;;2.55;71.18;95065.19;4844675;29;20427;-81
2021/03/06 05:34:52;;;;;;;27.40;15.07;;;;;;;2.76;70.50;95063.50;4848931;29;20044;-81
2021/03/06 05:37:18;;;;;;;27.13;14.25;;;;;;;3.01;69.92;95067.50;4850422;29;20480;-80
2021/03/06 05:39:43;;;;;;;31.23;18.60;;;;;;;2.98;70.72;95068.56;4860807;29;20384;-80
2021/03/06 05:42:10;;;;;;;36.83;20.63;;;;;;;3.17;70.42;95075.56;4879516;29;20471;-80
2021/03/06 05:44:37;;;;;;;53.78;22.85;;;;;;;3.30;70.45;95083.06;4858029;29;20029;-79
2021/03/06 05:47:02;;;;;;;38.90;24.02;;;;;;;3.50;70.09;95077.94;4844831;29;20057;-80
2021/03/06 05:49:28;;;;;;;41.58;20.42;;;;;;;3.70;68.98;95079.69;4835452;29;20036;-80
2021/03/06 05:51:53;;;;;;;32.42;18.60;;;;;;;4.13;68.01;95078.72;4863142;29;20513;-80
2021/03/06 05:54:18;;;;;;;27.23;18.80;;;;;;;4.75;67.91;95094.69;4839521;29;20029;-77
2021/03/06 05:56:44;;;;;;;30.23;18.52;;;;;;;5.44;67.16;95084.34;4842246;29;20045;-77
2021/03/06 05:59:10;;;;;;;24.58;16.83;;;;;;;5.71;66.98;95099.88;4812440;29;20516;-79
2021/03/06 06:01:36;;;;;;;25.20;18.17;;;;;;;6.04;66.86;95111.44;4854711;29;20053;-77
2021/03/06 06:04:02;;;;;;;24.55;18.95;;;;;;;6.28;65.47;95110.97;4822853;29;20044;-76
2021/03/06 06:06:31;;;;;;;23.25;18.08;;;;;;;6.35;65.38;95112.03;4856650;29;20148;-78
2021/03/06 06:09:04;;;;;;;25.27;18.10;;;;;;;6.39;65.30;95120.28;4821146;29;20654;-78
2021/03/06 06:11:30;;;;;;;24.30;19.17;;;;;;;6.49;65.04;95119.28;4842097;29;20528;-79
2021/03/06 06:13:56;;;;;;;28.55;20.00;;;;;;;6.46;64.60;95122.13;4827925;29;20058;-81
2021/03/06 06:16:22;;;;;;;29.08;20.92;;;;;;;6.57;63.84;95124.53;4861444;29;20048;-79
2021/03/06 06:18:51;;;;;;;33.88;21.08;;;;;;;6.63;63.86;95128.28;4822423;29;20037;-79
2021/03/06 06:21:38;;;;;;;32.72;22.63;;;;;;;6.74;63.32;95134.06;4852786;29;20099;-80
2021/03/06 06:24:05;;;;;;;48.72;22.67;;;;;;;6.83;63.01;95137.56;4870534;29;20021;-81
2021/03/06 06:26:30;;;;;;;40.95;22.75;;;;;;;6.78;63.33;95140.53;4861192;29;20049;-80
2021/03/06 06:28:56;;;;;;;32.10;21.85;;;;;;;6.77;62.98;95149.25;4841768;29;20425;-82
2021/03/06 06:31:21;;;;;;;28.20;21.23;;;;;;;6.53;64.40;95154.06;4864034;29;20092;-81
2021/03/06 06:33:47;;;;;;;30.30;22.25;;;;;;;6.62;65.56;95160.94;4847100;29;20491;-80
2021/03/06 06:36:38;;;;;;;31.48;23.92;;;;;;;6.23;70.24;95165.38;4860341;29;20495;-80
2021/03/06 06:39:05;;;;;;;32.45;23.88;;;;;;;6.49;70.04;95164.75;4859157;29;20070;-80
2021/03/06 06:41:49;;;;;;;37.10;27.25;;;;;;;6.63;72.10;95182.34;4830810;29;20045;-79
2021/03/06 06:44:14;;;;;;;36.92;29.42;;;;;;;6.59;73.15;95191.28;4857470;29;20101;-78
2021/03/06 06:46:40;;;;;;;36.53;28.00;;;;;;;6.54;74.23;95191.72;4857992;29;20062;-78
2021/03/06 06:49:05;;;;;;;32.15;25.67;;;;;;;6.51;75.31;95210.00;4843045;29;20388;-78
2021/03/06 06:51:31;;;;;;;31.08;25.48;;;;;;;6.46;75.47;95216.50;4859174;29;20069;-79
2021/03/06 06:54:15;;;;;;;34.28;29.25;;;;;;;6.43;74.83;95230.44;4855967;29;20085;-79
2021/03/06 06:56:40;;;;;;;32.58;26.35;;;;;;;6.27;75.65;95233.59;4846997;29;20037;-78
2021/03/06 06:59:08;;;;;;;21.85;17.33;;;;;;;5.87;77.19;95248.38;4842376;29;20033;-76
2021/03/06 07:01:35;;;;;;;19.48;17.40;;;;;;;6.03;76.16;95246.06;4843054;29;20136;-77
2021/03/06 07:04:08;;;;;;;17.33;15.43;;;;;;;5.80;76.67;95240.34;4843226;29;20037;-79
2021/03/06 07:06:34;;;;;;;15.98;14.40;;;;;;;5.53;77.30;95252.22;4846538;29;20049;-75
2021/03/06 07:09:12;;;;;;;14.77;13.27;;;;;;;5.33;78.81;95253.91;4842485;29;20116;-75
2021/03/06 07:11:38;;;;;;;16.27;14.75;;;;;;;5.50;77.91;95257.59;4851837;29;20042;-76
2021/03/06 07:14:03;;;;;;;14.93;13.55;;;;;;;5.35;79.19;95264.88;4843460;29;20748;-76
2021/03/06 07:16:58;;;;;;;15.25;13.75;;;;;;;5.50;77.88;95268.69;4845549;29;20124;-78
2021/03/06 07:19:31;;;;;;;14.70;13.20;;;;;;;5.11;79.38;95272.09;4825382;29;20070;-75
2021/03/06 07:21:58;;;;;;;14.35;13.13;;;;;;;5.20;78.74;95271.34;4832918;29;20078;-77
2021/03/06 07:24:25;;;;;;;12.88;11.60;;;;;;;5.12;78.94;95279.69;4846019;29;20407;-79
2021/03/06 07:26:52;;;;;;;12.93;11.85;;;;;;;4.86;80.28;95281.03;4829420;29;20033;-77
2021/03/06 07:29:18;;;;;;;10.57;9.57;;;;;;;4.88;80.65;95284.28;4833576;29;20222;-77
2021/03/06 07:31:44;;;;;;;10.80;8.38;;;;;;;4.78;80.66;95286.81;4853903;29;20041;-79
2021/03/06 07:34:10;;;;;;;10.35;9.48;;;;;;;4.75;81.14;95291.41;4847019;29;20043;-79
2021/03/06 07:36:36;;;;;;;11.65;10.57;;;;;;;5.02;80.75;95298.53;4863333;29;20419;-80
2021/03/06 07:39:03;;;;;;;11.57;10.57;;;;;;;5.08;79.85;95283.44;4836103;29;20037;-79
2021/03/06 07:41:28;;;;;;;11.15;10.25;;;;;;;5.09;79.42;95292.78;4828389;29;20053;-79
2021/03/06 07:43:54;;;;;;;10.48;9.48;;;;;;;5.08;78.70;95298.84;4826450;29;20030;-79
2021/03/06 07:46:19;;;;;;;10.00;9.07;;;;;;;4.72;79.88;95307.84;4826317;29;20045;-79
2021/03/06 07:48:48;;;;;;;9.80;8.90;;;;;;;5.00;79.49;95310.69;4853574;29;20038;-80
2021/03/06 07:51:13;;;;;;;9.45;8.60;;;;;;;4.82;79.67;95319.94;4847451;29;20495;-81
2021/03/06 07:53:39;;;;;;;9.23;8.27;;;;;;;4.93;80.02;95325.78;4865325;29;20041;-82
2021/03/06 07:56:07;;;;;;;9.43;8.60;;;;;;;4.70;79.87;95319.16;4846991;29;20469;-80
2021/03/06 07:58:49;;;;;;;7.88;7.18;;;;;;;4.52;79.28;95334.31;4848652;29;20038;-80
2021/03/06 08:01:34;;;;;;;6.03;5.63;;;;;;;4.22;80.80;95329.09;4847328;29;20523;-81
2021/03/06 08:04:01;;;;;;;7.07;6.53;;;;;;;4.28;80.33;95335.47;4867263;29;20025;-81
2021/03/06 08:06:27;;;;;;;8.73;7.93;;;;;;;3.98;82.12;95336.19;4850787;29;20046;-77
2021/03/06 08:09:02;;;;;;;8.40;7.70;;;;;;;4.00;82.94;95352.22;4848770;29;20036;-81
2021/03/06 08:11:33;;;;;;;7.85;7.25;;;;;;;3.78;83.13;95350.53;4863000;29;20037;-79
2021/03/06 08:14:00;;;;;;;6.20;5.70;;;;;;;3.67;83.36;95350.56;4863508;29;20037;-77
2021/03/06 08:16:29;;;;;;;6.55;6.00;;;;;;;3.65;83.31;95360.94;4849554;29;20194;-80
2021/03/06 08:19:01;;;;;;;7.75;7.13;;;;;;;3.57;83.41;95362.44;4863685;29;20047;-75
2021/03/06 08:21:27;;;;;;;9.50;6.28;;;;;;;3.45;83.60;95369.31;4857693;29;20033;-75
2021/03/06 08:24:23;;;;;;;11.00;6.60;;;;;;;3.49;84.12;95369.91;4857391;29;20061;-77
2021/03/06 08:27:01;;;;;;;7.60;6.90;;;;;;;3.37;84.09;95365.72;4842955;29;20053;-78
2021/03/06 08:29:27;;;;;;;7.38;6.78;;;;;;;3.41;84.72;95377.34;4838847;29;20102;-75
2021/03/06 08:32:02;;;;;;;8.35;7.55;;;;;;;3.45;84.39;95382.13;4838997;29;20058;-76
2021/03/06 08:34:46;;;;;;;7.05;6.45;;;;;;;3.55;84.85;95379.66;4838710;29;20427;-77
2021/03/06 08:37:14;;;;;;;8.35;6.85;;;;;;;3.43;84.40;95383.19;4840305;29;20038;-78
2021/03/06 08:39:46;;;;;;;8.48;7.22;;;;;;;3.57;84.40;95391.41;4859303;29;20053;-77
2021/03/06 08:42:12;;;;;;;7.30;6.68;;;;;;;3.71;83.84;95386.06;4861025;29;20085;-76
2021/03/06 08:44:38;;;;;;;7.38;6.68;;;;;;;3.71;83.61;95390.38;4860880;29;20029;-76
2021/03/06 08:47:04;;;;;;;7.50;6.82;;;;;;;3.48;83.90;95402.38;4858632;29;20033;-77
2021/03/06 08:49:31;;;;;;;7.05;6.35;;;;;;;3.57;83.59;95406.78;4841956;29;20073;-78
2021/03/06 08:51:56;;;;;;;6.85;6.25;;;;;;;3.36;84.66;95400.75;4842461;29;20399;-76
2021/03/06 08:54:22;;;;;;;7.25;5.32;;;;;;;3.13;84.52;95415.25;4845837;29;20034;-76
2021/03/06 08:56:49;;;;;;;6.35;5.75;;;;;;;2.92;84.51;95427.06;4846357;29;20044;-77
2021/03/06 08:59:14;;;;;;;6.55;5.30;;;;;;;2.75;85.69;95432.59;4822646;29;20100;-78
2021/03/06 09:01:40;;;;;;;5.25;4.82;;;;;;;3.00;84.52;95418.84;4840574;29;20049;-78
2021/03/06 09:04:06;;;;;;;5.93;5.32;;;;;;;3.11;84.27;95435.00;4840226;29;20065;-77
2021/03/06 09:06:40;;;;;;;6.95;5.25;;;;;;;3.08;84.34;95424.22;4859375;29;20120;-78
2021/03/06 09:09:10;;;;;;;6.18;5.68;;;;;;;3.06;84.45;95426.88;4860945;29;20085;-76
2021/03/06 09:11:53;;;;;;;8.30;5.65;;;;;;;3.01;84.20;95433.25;4859945;29;20075;-78
2021/03/06 09:14:19;;;;;;;6.63;6.03;;;;;;;3.03;83.91;95434.78;4842464;29;20073;-78
2021/03/06 09:16:48;;;;;;;5.65;5.13;;;;;;;2.86;83.92;95442.06;4856642;29;20041;-76
2021/03/06 09:19:29;;;;;;;5.97;5.47;;;;;;;2.97;83.83;95439.53;4831616;29;20097;-76
2021/03/06 09:22:05;;;;;;;7.68;6.00;;;;;;;3.02;83.61;95443.38;4828887;29;20046;-77
2021/03/06 09:24:49;;;;;;;7.07;6.38;;;;;;;3.13;83.35;95440.03;4841907;29;20025;-78
2021/03/06 09:27:15;;;;;;;6.70;6.10;;;;;;;3.02;82.72;95453.59;4841819;29;20416;-78
2021/03/06 09:29:41;;;;;;;5.65;5.15;;;;;;;2.72;83.46;95442.25;4837766;29;20500;-78
2021/03/06 09:32:07;;;;;;;6.18;5.60;;;;;;;2.83;82.92;95452.50;4836062;29;20057;-77
2021/03/06 09:34:33;;;;;;;8.55;6.05;;;;;;;2.93;83.01;95449.16;4856329;29;20086;-78
2021/03/06 09:36:58;;;;;;;6.10;5.60;;;;;;;2.81;82.74;95473.06;4857856;29;20036;-78
2021/03/06 09:39:25;;;;;;;8.50;7.40;;;;;;;2.97;82.91;95467.66;4854341;29;20579;-77
2021/03/06 09:41:50;;;;;;;7.72;6.82;;;;;;;2.96;82.44;95469.41;4858287;29;20030;-76
2021/03/06 09:44:17;;;;;;;5.88;5.35;;;;;;;2.90;82.00;95480.06;4815227;29;20651;-77
2021/03/06 09:46:42;;;;;;;5.90;5.40;;;;;;;2.98;81.48;95471.84;4859308;29;20034;-77
2021/03/06 09:49:14;;;;;;;5.20;4.78;;;;;;;2.92;82.43;95475.66;4833022;29;20026;-77
2021/03/06 09:51:43;;;;;;;6.07;5.57;;;;;;;2.96;82.85;95479.63;4842907;29;20037;-77
2021/03/06 09:54:09;;;;;;;6.43;5.82;;;;;;;3.04;81.98;95476.53;4858168;29;20033;-78
2021/03/06 09:56:34;;;;;;;7.22;6.53;;;;;;;3.02;82.60;95468.94;4845415;29;20503;-77
2021/03/06 09:59:01;;;;;;;7.80;7.13;;;;;;;2.98;82.51;95470.13;4832963;29;20037;-77
2021/03/06 10:01:28;;;;;;;9.10;8.20;;;;;;;2.87;83.35;95482.03;4828686;29;20064;-77
2021/03/06 10:03:53;;;;;;;8.65;7.95;;;;;;;3.01;83.36;95480.13;4842522;29;20054;-78
2021/03/06 10:06:21;;;;;;;9.05;8.25;;;;;;;3.01;83.11;95482.69;4843161;29;20040;-78
2021/03/06 10:08:57;;;;;;;10.63;8.00;;;;;;;2.98;83.70;95477.78;4855905;29;20055;-78
2021/03/06 10:11:50;;;;;;;7.97;7.28;;;;;;;3.12;82.80;95490.38;4831269;29;20043;-79
2021/03/06 10:14:20;;;;;;;7.72;7.07;;;;;;;2.72;83.83;95478.84;4854599;29;20136;-78
2021/03/06 10:16:49;;;;;;;7.53;6.80;;;;;;;2.90;83.18;95480.06;4846257;29;20060;-76
2021/03/06 10:19:22;;;;;;;7.72;7.03;;;;;;;2.90;83.37;95487.75;4861536;29;20037;-78
2021/03/06 10:22:09;;;;;;;7.75;7.05;;;;;;;3.02;82.75;95491.97;4842903;29;20057;-79
2021/03/06 10:24:51;;;;;;;8.45;7.65;;;;;;;2.92;83.34;95495.31;4843460;29;20045;-78
2021/03/06 10:27:17;;;;;;;8.50;7.70;;;;;;;3.12;83.29;95495.47;4841430;29;20045;-78
2021/03/06 10:29:43;;;;;;;9.77;8.80;;;;;;;3.12;83.23;95492.94;4860244;29;20030;-77
2021/03/06 10:32:08;;;;;;;9.52;8.63;;;;;;;3.06;82.99;95500.22;4857998;29;20495;-76
2021/03/06 10:34:35;;;;;;;8.68;7.95;;;;;;;2.90;82.70;95500.53;4825565;29;20546;-79
2021/03/06 10:37:10;;;;;;;9.02;8.23;;;;;;;2.86;83.11;95503.44;4829774;29;20091;-79
2021/03/06 10:40:02;;;;;;;10.80;9.63;;;;;;;2.84;83.63;95507.84;4859246;29;20037;-76
2021/03/06 10:42:40;;;;;;;10.73;9.68;;;;;;;3.04;83.40;95502.91;4843861;29;20048;-77
2021/03/06 10:45:10;;;;;;;10.20;9.30;;;;;;;2.89;82.92;95505.78;4843360;29;20053;-78
2021/03/06 10:47:48;;;;;;;11.63;10.45;;;;;;;2.84;83.18;95507.84;4825539;29;20049;-79
2021/03/06 10:50:21;;;;;;;10.98;9.93;;;;;;;2.94;83.61;95496.00;4862727;29;20029;-77
2021/03/06 10:52:47;;;;;;;11.43;10.32;;;;;;;2.99;82.93;95483.69;4848068;29;20658;-79
2021/03/06 10:55:13;;;;;;;10.63;9.65;;;;;;;3.22;82.62;95489.69;4842386;29;20094;-78
2021/03/06 10:57:51;;;;;;;11.13;10.10;;;;;;;3.04;82.88;95482.44;4841861;29;20101;-78
2021/03/06 11:00:23;;;;;;;12.50;11.23;;;;;;;3.31;82.23;95483.91;4838889;29;20029;-79
2021/03/06 11:02:58;;;;;;;12.13;11.13;;;;;;;3.09;82.89;95494.88;4855504;29;20065;-77
2021/03/06 11:05:25;;;;;;;12.20;11.00;;;;;;;3.18;82.89;95499.34;4826405;29;20029;-78
2021/03/06 11:07:50;;;;;;;11.75;10.65;;;;;;;3.29;82.37;95490.88;4845730;29;20048;-79
2021/03/06 11:10:16;;;;;;;10.48;9.52;;;;;;;3.19;82.88;95495.84;4832916;29;20073;-78
2021/03/06 11:12:52;;;;;;;12.98;11.60;;;;;;;3.15;83.62;95497.00;4856899;29;20057;-76
2021/03/06 11:15:18;;;;;;;12.15;10.95;;;;;;;3.17;82.74;95495.97;4851894;29;20044;-79
2021/03/06 11:17:55;;;;;;;12.75;11.20;;;;;;;3.18;83.15;95492.47;4843531;29;20085;-78
2021/03/06 11:20:25;;;;;;;12.55;11.35;;;;;;;3.20;83.21;95500.06;4853249;29;20041;-79
2021/03/06 11:22:50;;;;;;;13.55;12.15;;;;;;;3.36;82.85;95498.00;4825540;29;20026;-79
2021/03/06 11:25:16;;;;;;;12.70;11.55;;;;;;;3.12;82.99;95497.22;4823361;29;20518;-78
2021/03/06 11:27:55;;;;;;;13.65;12.52;;;;;;;3.37;82.93;95502.16;4839602;29;20169;-78
2021/03/06 11:30:26;;;;;;;12.02;10.90;;;;;;;3.34;81.47;95492.16;4855410;29;20599;-78
2021/03/06 11:32:52;;;;;;;14.82;11.75;;;;;;;3.35;81.61;95496.34;4851746;29;20049;-77
2021/03/06 11:35:17;;;;;;;12.63;11.38;;;;;;;3.24;81.82;95496.34;4839855;29;20042;-77
2021/03/06 11:37:43;;;;;;;12.05;10.95;;;;;;;3.13;81.61;95488.63;4839845;29;20041;-78